Sks Mosel — LAXB5 — position and weather

sailwx.info

Track history (hours):
 
Tides and Currents Weather Stations Pressure Air Temp Water Temp Dewpoint Dewpoint Depression Visibility Wind Speed Wind Dir Waves Ship Positions

Sks Mosel

Last reported at 2017-Sep-21 04:43 UTC. Time now 2017-Sep-21 07:12 UTC.
Position N 39°26' W 009°55'.

Length 250 m; draft 13.1 m.

Type: Ship. MMSI: 258792000.

Date/timePositionNaut miles runAvg speedWind from/ knotsBaromVisibWave heightAir tempDewpointWater temp
2017-Sep-21 04:43N 39°26' W 009°55'313.0
2017-Sep-21 04:30N 39°23' W 009°55'612.6
2017-Sep-21 04:00N 39°17' W 009°56'713.2
2017-Sep-21 03:30N 39°10' W 009°56'713.3
2017-Sep-21 03:00N 39°04' W 009°56'613.0
2017-Sep-21 02:30N 38°57' W 009°57'612.7
2017-Sep-21 02:00N 38°51' W 009°57'613.0
2017-Sep-21 01:30N 38°44' W 009°57'712.9
2017-Sep-21 01:00N 38°38' W 009°56'612.3
2017-Sep-21 00:30N 38°32' W 009°55'612.2
2017-Sep-21 00:00N 38°26' W 009°53'612.1
2017-Sep-20 23:30N 38°20' W 009°50'612.2
2017-Sep-20 23:00N 38°14' W 009°48'711.9
2017-Sep-20 22:24N 38°07' W 009°46'511.9
2017-Sep-20 22:00N 38°03' W 009°45'611.9
2017-Sep-20 21:30N 37°57' W 009°43'612.1
2017-Sep-20 21:00N 37°51' W 009°42'612.0
2017-Sep-20 20:30N 37°45' W 009°40'611.9
2017-Sep-20 20:00N 37°39' W 009°39'611.9
2017-Sep-20 19:30N 37°34' W 009°37'612.3
2017-Sep-20 19:00N 37°28' W 009°35'612.2
2017-Sep-20 18:30N 37°22' W 009°34'612.5
2017-Sep-20 18:00N 37°16' W 009°32'612.5
2017-Sep-20 17:30N 37°09' W 009°30'612.7
2017-Sep-20 17:00N 37°03' W 009°28'612.5
2017-Sep-20 16:30N 36°57' W 009°26'612.4
2017-Sep-20 16:00N 36°51' W 009°25'612.6
2017-Sep-20 15:31N 36°47' W 009°19'612.8
2017-Sep-20 15:00N 36°42' W 009°13'1512.7
2017-Sep-20 13:51N 36°37' W 008°56'412.2
2017-Sep-20 13:31N 36°35' W 008°52'1112.6
2017-Sep-20 12:36N 36°31' W 008°38'112.1
2017-Sep-20 12:30N 36°31' W 008°37'1112.6
2017-Sep-20 11:39N 36°28' W 008°24'212.9
2017-Sep-20 11:30N 36°27' W 008°22'612.8
2017-Sep-20 11:01N 36°25' W 008°14'612.8
2017-Sep-20 10:30N 36°23' W 008°07'613.0
2017-Sep-20 10:00N 36°21' W 007°59'712.9
2017-Sep-20 09:30N 36°20' W 007°51'713.1
2017-Sep-20 09:00N 36°18' W 007°43'7612.8
2017-Sep-20 03:02N 35°58' W 006°12'2912.5
2017-Sep-20 00:42N 35°58' W 005°36'212.0
2017-Sep-20 00:30N 35°58' W 005°33'611.9
2017-Sep-20 00:00N 36°00' W 005°26'510.8
2017-Sep-19 23:30N 36°02' W 005°20'510.6
2017-Sep-19 23:00N 36°03' W 005°13'  
2017-Sep-16 02:02N 36°01' W 004°58'112.4
2017-Sep-16 01:55N 36°00' W 005°00'612.8
2017-Sep-16 01:27N 36°00' W 005°08'613.3
2017-Sep-16 01:01N 35°60' W 005°15'612.8
2017-Sep-16 00:30N 35°59' W 005°23'612.3
2017-Sep-16 00:00N 35°57' W 005°30'2011.4
2017-Sep-15 22:14N 35°54' W 005°55'210.8
2017-Sep-15 22:00N 35°54' W 005°58'2310.2
2017-Sep-15 19:47N 35°54' W 006°26'410.6
2017-Sep-15 19:24N 35°54' W 006°31'1210.5
2017-Sep-15 18:16N 35°57' W 006°45'10510.0
2017-Sep-15 07:47N 36°27' W 008°49'710.4
2017-Sep-15 07:06N 36°29' W 008°57'310.4
2017-Sep-15 06:50N 36°30' W 009°01'310.2
2017-Sep-15 06:30N 36°31' W 009°05'510.3
2017-Sep-15 06:00N 36°33' W 009°11'85 9.9
2017-Sep-14 21:24N 37°51' W 009°51'510.1
2017-Sep-14 20:53N 37°56' W 009°53'410.2
2017-Sep-14 20:30N 37°60' W 009°54'510.2
2017-Sep-14 20:01N 38°05' W 009°56'510.3
2017-Sep-14 19:30N 38°10' W 009°57'510.3
2017-Sep-14 18:59N 38°15' W 009°59'510.5
2017-Sep-14 18:30N 38°20' W 010°00'510.9
2017-Sep-14 18:00N 38°25' W 010°02'510.9
2017-Sep-14 17:31N 38°31' W 010°03'611.2
2017-Sep-14 17:01N 38°36' W 010°05'611.1
2017-Sep-14 16:30N 38°42' W 010°06'510.8
2017-Sep-14 16:00N 38°47' W 010°06'510.7
2017-Sep-14 15:31N 38°52' W 010°07'510.9
2017-Sep-14 15:00N 38°58' W 010°07'510.7
2017-Sep-14 14:30N 39°03' W 010°07'510.7
2017-Sep-14 14:01N 39°08' W 010°06'510.8
2017-Sep-14 13:30N 39°14' W 010°06'  
2017-Sep-11 16:28N 49°36' W 003°57'4 9.5
2017-Sep-11 16:01N 49°38' W 003°51'5 9.8
2017-Sep-11 15:29N 49°40' W 003°44'510.2
2017-Sep-11 15:00N 49°43' W 003°38'510.3
2017-Sep-11 14:30N 49°46' W 003°31'510.1
2017-Sep-11 14:00N 49°48' W 003°24'5 9.8
2017-Sep-11 13:30N 49°51' W 003°18'5 9.0
2017-Sep-11 13:00N 49°53' W 003°12'4 8.2
2017-Sep-11 12:30N 49°55' W 003°06'4 7.5
2017-Sep-11 12:00N 49°57' W 003°01'3 6.8
2017-Sep-11 11:30N 49°58' W 002°56'3 6.2
2017-Sep-11 11:00N 49°59' W 002°52'3 5.7
2017-Sep-11 10:30N 50°00' W 002°48'3 5.0
2017-Sep-11 09:58N 50°01' W 002°43'2 5.2
2017-Sep-11 09:29N 50°02' W 002°40'22 6.7
2017-Sep-11 06:15N 50°08' W 002°07'3 9.3
2017-Sep-11 05:59N 50°08' W 002°04'710.5
2017-Sep-11 05:19N 50°10' W 001°53'411.1
2017-Sep-11 04:58N 50°12' W 001°47'  
Track history (hours):
 
Tides and Currents Weather Stations Pressure Air Temp Water Temp Dewpoint Dewpoint Depression Visibility Wind Speed Wind Dir Waves Ship Positions

Sks Mosel

Last reported at 2017-Sep-21 04:43 UTC. Time now 2017-Sep-21 07:12 UTC.
Position N 39°26' W 009°55'.

Length 250 m; draft 13.1 m.

Type: Ship. MMSI: 258792000.

Date/timePositionNaut miles runAvg speedWind from/ knotsBaromVisibWave heightAir tempDewpointWater temp
2017-Sep-21 04:43N 39°26' W 009°55'313.0
2017-Sep-21 04:30N 39°23' W 009°55'612.6
2017-Sep-21 04:00N 39°17' W 009°56'713.2
2017-Sep-21 03:30N 39°10' W 009°56'713.3
2017-Sep-21 03:00N 39°04' W 009°56'613.0
2017-Sep-21 02:30N 38°57' W 009°57'612.7
2017-Sep-21 02:00N 38°51' W 009°57'613.0
2017-Sep-21 01:30N 38°44' W 009°57'712.9
2017-Sep-21 01:00N 38°38' W 009°56'612.3
2017-Sep-21 00:30N 38°32' W 009°55'612.2
2017-Sep-21 00:00N 38°26' W 009°53'612.1
2017-Sep-20 23:30N 38°20' W 009°50'612.2
2017-Sep-20 23:00N 38°14' W 009°48'711.9
2017-Sep-20 22:24N 38°07' W 009°46'511.9
2017-Sep-20 22:00N 38°03' W 009°45'611.9
2017-Sep-20 21:30N 37°57' W 009°43'612.1
2017-Sep-20 21:00N 37°51' W 009°42'612.0
2017-Sep-20 20:30N 37°45' W 009°40'611.9
2017-Sep-20 20:00N 37°39' W 009°39'611.9
2017-Sep-20 19:30N 37°34' W 009°37'612.3
2017-Sep-20 19:00N 37°28' W 009°35'612.2
2017-Sep-20 18:30N 37°22' W 009°34'612.5
2017-Sep-20 18:00N 37°16' W 009°32'612.5
2017-Sep-20 17:30N 37°09' W 009°30'612.7
2017-Sep-20 17:00N 37°03' W 009°28'612.5
2017-Sep-20 16:30N 36°57' W 009°26'612.4
2017-Sep-20 16:00N 36°51' W 009°25'612.6
2017-Sep-20 15:31N 36°47' W 009°19'612.8
2017-Sep-20 15:00N 36°42' W 009°13'1512.7
2017-Sep-20 13:51N 36°37' W 008°56'412.2
2017-Sep-20 13:31N 36°35' W 008°52'1112.6
2017-Sep-20 12:36N 36°31' W 008°38'112.1
2017-Sep-20 12:30N 36°31' W 008°37'1112.6
2017-Sep-20 11:39N 36°28' W 008°24'212.9
2017-Sep-20 11:30N 36°27' W 008°22'612.8
2017-Sep-20 11:01N 36°25' W 008°14'612.8
2017-Sep-20 10:30N 36°23' W 008°07'613.0
2017-Sep-20 10:00N 36°21' W 007°59'712.9
2017-Sep-20 09:30N 36°20' W 007°51'713.1
2017-Sep-20 09:00N 36°18' W 007°43'7612.8
2017-Sep-20 03:02N 35°58' W 006°12'2912.5
2017-Sep-20 00:42N 35°58' W 005°36'212.0
2017-Sep-20 00:30N 35°58' W 005°33'611.9
2017-Sep-20 00:00N 36°00' W 005°26'510.8
2017-Sep-19 23:30N 36°02' W 005°20'510.6
2017-Sep-19 23:00N 36°03' W 005°13'  
2017-Sep-16 02:02N 36°01' W 004°58'112.4
2017-Sep-16 01:55N 36°00' W 005°00'612.8
2017-Sep-16 01:27N 36°00' W 005°08'613.3
2017-Sep-16 01:01N 35°60' W 005°15'612.8
2017-Sep-16 00:30N 35°59' W 005°23'612.3
2017-Sep-16 00:00N 35°57' W 005°30'2011.4
2017-Sep-15 22:14N 35°54' W 005°55'210.8
2017-Sep-15 22:00N 35°54' W 005°58'2310.2
2017-Sep-15 19:47N 35°54' W 006°26'410.6
2017-Sep-15 19:24N 35°54' W 006°31'1210.5
2017-Sep-15 18:16N 35°57' W 006°45'10510.0
2017-Sep-15 07:47N 36°27' W 008°49'710.4
2017-Sep-15 07:06N 36°29' W 008°57'310.4
2017-Sep-15 06:50N 36°30' W 009°01'310.2
2017-Sep-15 06:30N 36°31' W 009°05'510.3
2017-Sep-15 06:00N 36°33' W 009°11'85 9.9
2017-Sep-14 21:24N 37°51' W 009°51'510.1
2017-Sep-14 20:53N 37°56' W 009°53'410.2
2017-Sep-14 20:30N 37°60' W 009°54'510.2
2017-Sep-14 20:01N 38°05' W 009°56'510.3
2017-Sep-14 19:30N 38°10' W 009°57'510.3
2017-Sep-14 18:59N 38°15' W 009°59'510.5
2017-Sep-14 18:30N 38°20' W 010°00'510.9
2017-Sep-14 18:00N 38°25' W 010°02'510.9
2017-Sep-14 17:31N 38°31' W 010°03'611.2
2017-Sep-14 17:01N 38°36' W 010°05'611.1
2017-Sep-14 16:30N 38°42' W 010°06'510.8
2017-Sep-14 16:00N 38°47' W 010°06'510.7
2017-Sep-14 15:31N 38°52' W 010°07'510.9
2017-Sep-14 15:00N 38°58' W 010°07'510.7
2017-Sep-14 14:30N 39°03' W 010°07'510.7
2017-Sep-14 14:01N 39°08' W 010°06'510.8
2017-Sep-14 13:30N 39°14' W 010°06'  
2017-Sep-11 16:28N 49°36' W 003°57'4 9.5
2017-Sep-11 16:01N 49°38' W 003°51'5 9.8
2017-Sep-11 15:29N 49°40' W 003°44'510.2
2017-Sep-11 15:00N 49°43' W 003°38'510.3
2017-Sep-11 14:30N 49°46' W 003°31'510.1
2017-Sep-11 14:00N 49°48' W 003°24'5 9.8
2017-Sep-11 13:30N 49°51' W 003°18'5 9.0
2017-Sep-11 13:00N 49°53' W 003°12'4 8.2
2017-Sep-11 12:30N 49°55' W 003°06'4 7.5
2017-Sep-11 12:00N 49°57' W 003°01'3 6.8
2017-Sep-11 11:30N 49°58' W 002°56'3 6.2
2017-Sep-11 11:00N 49°59' W 002°52'3 5.7
2017-Sep-11 10:30N 50°00' W 002°48'3 5.0
2017-Sep-11 09:58N 50°01' W 002°43'2 5.2
2017-Sep-11 09:29N 50°02' W 002°40'22 6.7
2017-Sep-11 06:15N 50°08' W 002°07'3 9.3
2017-Sep-11 05:59N 50°08' W 002°04'710.5
2017-Sep-11 05:19N 50°10' W 001°53'411.1
2017-Sep-11 04:58N 50°12' W 001°47'  

Dump ship's entire track history